Time;durP1;ratioP1;P1;durP2;ratioP2;P2;SDS_P1;SDS_P2;PMS_P1;PMS_P2;Temp;Humidity;BMP_temperature;BMP_pressure;BME280_temperature;BME280_humidity;BME280_pressure;Samples;Min_cycle;Max_cycle;Signal;HPM_P1;HPM_P2
2022/08/24 07:50:30;;;;;;;2.87;2.67;;;27.20;76.60;;;;;;4992547;28;20643;-96
2022/08/24 07:52:59;;;;;;;3.00;2.60;;;27.20;76.40;;;;;;4935238;29;20470;-93
2022/08/24 07:56:04;;;;;;;3.73;3.43;;;27.20;76.30;;;;;;4938751;29;20491;-96
2022/08/24 07:58:31;;;;;;;2.57;2.33;;;27.40;76.20;;;;;;4938864;29;20451;-90
2022/08/24 08:00:58;;;;;;;3.83;3.03;;;27.20;76.10;;;;;;4940644;29;20531;-96
2022/08/24 08:03:33;;;;;;;3.57;2.13;;;27.30;76.00;;;;;;4948136;29;20443;-96
2022/08/24 08:06:03;;;;;;;3.00;2.80;;;27.30;75.90;;;;;;4952931;28;20422;-96
2022/08/24 08:08:37;;;;;;;4.00;2.83;;;27.20;75.70;;;;;;4960715;29;20494;-94
2022/08/24 08:11:06;;;;;;;2.80;2.60;;;27.40;75.70;;;;;;4963073;29;20517;-90
2022/08/24 08:14:01;;;;;;;2.60;2.40;;;27.40;75.70;;;;;;4965094;29;20450;-96
2022/08/24 08:16:31;;;;;;;2.97;2.67;;;27.40;75.40;;;;;;4950546;29;20435;-94
2022/08/24 08:18:58;;;;;;;2.63;2.43;;;27.40;75.30;;;;;;4950214;29;20451;-95
2022/08/24 08:24:17;;;;;;;3.37;3.13;;;27.40;75.20;;;;;;4938162;29;20418;-89
2022/08/24 08:26:45;;;;;;;4.50;3.17;;;27.40;75.10;;;;;;4938152;29;20443;-92
2022/08/24 08:29:13;;;;;;;2.80;2.60;;;27.40;75.20;;;;;;4937532;29;20947;-88
2022/08/24 08:31:40;;;;;;;2.37;2.27;;;27.40;75.10;;;;;;4937597;29;20458;-89
2022/08/24 08:34:08;;;;;;;4.27;3.00;;;27.40;75.10;;;;;;4937683;29;20817;-88
2022/08/24 08:36:38;;;;;;;3.77;3.00;;;27.40;75.10;;;;;;4937983;29;20450;-96
2022/08/24 08:39:06;;;;;;;4.00;2.60;;;27.40;75.10;;;;;;4955308;29;20497;-89
2022/08/24 08:42:17;;;;;;;2.90;2.70;;;27.40;75.00;;;;;;4956788;29;20493;-89
2022/08/24 08:45:00;;;;;;;2.80;2.60;;;27.50;75.00;;;;;;4956901;29;20434;-90
2022/08/24 08:48:04;;;;;;;2.67;2.27;;;27.40;74.90;;;;;;4958003;29;20470;-90
2022/08/24 08:50:40;;;;;;;2.57;2.37;;;27.50;75.00;;;;;;4938006;29;20492;-89
2022/08/24 08:53:53;;;;;;;3.47;2.37;;;27.40;74.90;;;;;;4958333;29;20450;-93
2022/08/24 08:56:28;;;;;;;2.43;2.23;;;27.50;74.80;;;;;;4956508;29;20569;-89
2022/08/24 08:59:03;;;;;;;2.57;2.37;;;27.40;74.90;;;;;;4938831;29;20462;-89
2022/08/24 09:01:41;;;;;;;2.43;2.23;;;27.50;74.90;;;;;;4937041;29;20816;-89
2022/08/24 09:04:35;;;;;;;2.40;2.30;;;27.50;75.70;;;;;;4936906;29;20450;-90
2022/08/24 09:07:25;;;;;;;2.13;1.87;;;27.50;74.70;;;;;;4936949;29;20510;-95
2022/08/24 09:10:17;;;;;;;2.30;2.10;;;27.50;74.70;;;;;;4934415;29;20506;-90
2022/08/24 09:12:58;;;;;;;2.70;2.50;;;27.50;74.70;;;;;;4941706;29;20997;-89
2022/08/24 09:15:58;;;;;;;2.47;2.27;;;27.50;74.80;;;;;;4956206;28;20486;-89
2022/08/24 09:18:37;;;;;;;4.90;2.73;;;27.50;74.70;;;;;;4956239;29;20453;-91
2022/08/24 09:21:18;;;;;;;2.73;2.33;;;27.50;75.60;;;;;;4955705;28;20482;-89
2022/08/24 09:23:55;;;;;;;2.17;2.07;;;27.50;74.60;;;;;;4955624;29;20513;-89
2022/08/24 09:26:27;;;;;;;2.17;2.07;;;27.50;74.60;;;;;;4955722;29;20898;-89
2022/08/24 09:29:04;;;;;;;2.10;2.00;;;27.50;74.50;;;;;;4955634;29;20442;-90
2022/08/24 09:32:01;;;;;;;3.27;2.10;;;27.50;74.40;;;;;;4955779;28;20438;-89
2022/08/24 09:34:38;;;;;;;2.63;2.43;;;27.50;74.40;;;;;;4955521;28;20488;-91
2022/08/24 09:37:28;;;;;;;2.57;2.37;;;27.50;74.50;;;;;;4956012;28;20470;-91
2022/08/24 09:40:02;;;;;;;2.53;2.43;;;27.50;74.40;;;;;;4955819;29;20435;-91
2022/08/24 09:42:59;;;;;;;2.70;2.17;;;27.50;74.50;;;;;;4955771;29;20995;-89
2022/08/24 09:45:55;;;;;;;2.53;2.43;;;27.60;74.50;;;;;;4955336;29;20462;-91
2022/08/24 09:48:51;;;;;;;2.50;2.30;;;27.60;74.50;;;;;;4955538;29;20513;-91
2022/08/24 09:51:55;;;;;;;2.17;2.00;;;27.60;74.50;;;;;;4953067;29;20474;-89
2022/08/24 09:55:04;;;;;;;2.30;2.10;;;27.60;74.60;;;;;;4955258;29;20921;-91
2022/08/24 09:57:48;;;;;;;3.27;1.97;;;27.60;74.60;;;;;;4955536;29;20525;-90
2022/08/24 10:00:19;;;;;;;1.83;1.73;;;27.50;74.60;;;;;;4955621;29;20488;-91
2022/08/24 10:02:58;;;;;;;2.00;1.90;;;27.50;74.60;;;;;;4955486;28;20443;-89
2022/08/24 10:05:42;;;;;;;2.13;2.03;;;27.60;74.60;;;;;;4955692;29;20925;-90
2022/08/24 10:08:18;;;;;;;1.70;1.60;;;27.60;74.60;;;;;;4955316;28;20485;-90
2022/08/24 10:10:52;;;;;;;2.13;1.90;;;27.60;74.60;;;;;;4955238;29;20528;-91
2022/08/24 10:13:26;;;;;;;4.50;2.17;;;27.60;74.60;;;;;;4955208;29;20447;-92
2022/08/24 10:16:07;;;;;;;3.13;1.60;;;27.60;74.60;;;;;;4955555;28;20509;-88
2022/08/24 10:18:50;;;;;;;3.83;2.20;;;27.60;75.40;;;;;;4959710;29;20489;-88
2022/08/24 10:21:31;;;;;;;2.00;1.90;;;27.60;74.50;;;;;;4959219;28;20448;-89
2022/08/24 10:24:16;;;;;;;2.00;1.90;;;27.60;74.60;;;;;;4959132;28;20453;-89
2022/08/24 10:27:03;;;;;;;2.03;1.93;;;27.60;74.60;;;;;;4959995;28;20474;-90
2022/08/24 10:29:53;;;;;;;2.80;2.00;;;27.60;74.60;;;;;;4958948;28;20450;-89
2022/08/24 10:32:38;;;;;;;2.23;2.03;;;27.60;74.60;;;;;;4959080;28;20442;-90
2022/08/24 10:35:13;;;;;;;3.17;2.00;;;27.60;74.70;;;;;;4958505;29;20544;-89
